sensor_id;sensor_type;location;lat;lon;timestamp;pressure;altitude;pressure_sealevel;temperature;humidity
61674;BME280;47573;43.832;5.974;2023-07-29T00:02:27;95175.19;;;31.36;49.29
61674;BME280;47573;43.832;5.974;2023-07-29T00:09:07;95177.63;;;31.38;49.55
61674;BME280;47573;43.832;5.974;2023-07-29T00:15:49;95168.31;;;31.34;49.19
61674;BME280;47573;43.832;5.974;2023-07-29T00:22:29;95172.91;;;31.43;49.20
61674;BME280;47573;43.832;5.974;2023-07-29T00:29:10;95165.66;;;31.47;48.82
61674;BME280;47573;43.832;5.974;2023-07-29T00:35:52;95167.28;;;31.48;49.13
61674;BME280;47573;43.832;5.974;2023-07-29T00:42:32;95159.53;;;31.50;48.74
61674;BME280;47573;43.832;5.974;2023-07-29T00:49:13;95155.66;;;31.51;48.56
61674;BME280;47573;43.832;5.974;2023-07-29T00:55:55;95152.38;;;31.49;48.51
61674;BME280;47573;43.832;5.974;2023-07-29T01:02:36;95151.78;;;31.52;48.45
61674;BME280;47573;43.832;5.974;2023-07-29T01:09:20;95147.91;;;31.53;48.67
61674;BME280;47573;43.832;5.974;2023-07-29T01:16:07;95159.75;;;31.54;48.65
61674;BME280;47573;43.832;5.974;2023-07-29T01:22:50;95153.94;;;31.55;48.10
61674;BME280;47573;43.832;5.974;2023-07-29T01:29:32;95149.53;;;31.54;48.41
61674;BME280;47573;43.832;5.974;2023-07-29T01:36:16;95156.97;;;31.54;48.17
61674;BME280;47573;43.832;5.974;2023-07-29T01:42:59;95151.19;;;31.55;48.66
61674;BME280;47573;43.832;5.974;2023-07-29T01:49:41;95149.53;;;31.54;48.15
61674;BME280;47573;43.832;5.974;2023-07-29T01:56:21;95149.53;;;31.54;48.43
61674;BME280;47573;43.832;5.974;2023-07-29T02:03:02;95140.13;;;31.55;48.26
61674;BME280;47573;43.832;5.974;2023-07-29T02:09:44;95147.91;;;31.53;48.26
61674;BME280;47573;43.832;5.974;2023-07-29T02:16:24;95140.72;;;31.52;48.29
61674;BME280;47573;43.832;5.974;2023-07-29T02:23:05;95131.09;;;31.50;48.16
61674;BME280;47573;43.832;5.974;2023-07-29T02:29:47;95135.00;;;31.49;48.07
61674;BME280;47573;43.832;5.974;2023-07-29T02:36:27;95131.94;;;31.50;47.70
61674;BME280;47573;43.832;5.974;2023-07-29T02:43:08;95116.59;;;31.44;48.17
61674;BME280;47573;43.832;5.974;2023-07-29T02:49:50;95105.53;;;31.44;48.28
61674;BME280;47573;43.832;5.974;2023-07-29T02:56:30;95110.25;;;31.44;47.94
61674;BME280;47573;43.832;5.974;2023-07-29T03:03:10;95110.59;;;31.37;48.27
61674;BME280;47573;43.832;5.974;2023-07-29T03:09:52;95101.19;;;31.38;48.60
61674;BME280;47573;43.832;5.974;2023-07-29T03:16:33;95092.41;;;31.36;48.22
61674;BME280;47573;43.832;5.974;2023-07-29T03:23:13;95093.50;;;31.35;48.53
61674;BME280;47573;43.832;5.974;2023-07-29T03:29:55;95097.09;;;31.36;48.31
61674;BME280;47573;43.832;5.974;2023-07-29T03:36:36;95084.72;;;31.33;48.68
61674;BME280;47573;43.832;5.974;2023-07-29T03:43:16;95087.47;;;31.33;48.44
61674;BME280;47573;43.832;5.974;2023-07-29T03:49:58;95084.22;;;31.31;48.36
61674;BME280;47573;43.832;5.974;2023-07-29T03:56:39;95077.38;;;31.29;48.62
61674;BME280;47573;43.832;5.974;2023-07-29T04:03:19;95092.59;;;31.26;48.82
61674;BME280;47573;43.832;5.974;2023-07-29T04:10:01;95097.88;;;31.23;48.61
61674;BME280;47573;43.832;5.974;2023-07-29T04:16:42;95084.16;;;31.18;48.46
61674;BME280;47573;43.832;5.974;2023-07-29T04:23:23;95087.25;;;31.16;48.60
61674;BME280;47573;43.832;5.974;2023-07-29T04:30:06;95096.03;;;31.18;48.59
61674;BME280;47573;43.832;5.974;2023-07-29T04:36:47;95101.25;;;31.20;48.79
61674;BME280;47573;43.832;5.974;2023-07-29T04:43:28;95102.97;;;31.16;48.64
61674;BME280;47573;43.832;5.974;2023-07-29T04:50:10;95097.13;;;31.17;49.00
61674;BME280;47573;43.832;5.974;2023-07-29T04:56:50;95094.47;;;31.12;49.07
61674;BME280;47573;43.832;5.974;2023-07-29T05:03:31;95089.47;;;31.14;48.48
61674;BME280;47573;43.832;5.974;2023-07-29T05:10:13;95089.25;;;31.11;48.92
61674;BME280;47573;43.832;5.974;2023-07-29T05:16:53;95085.06;;;31.13;48.95
61674;BME280;47573;43.832;5.974;2023-07-29T05:23:34;95090.78;;;30.61;51.43
61674;BME280;47573;43.832;5.974;2023-07-29T05:30:17;95081.53;;;30.33;52.71
61674;BME280;47573;43.832;5.974;2023-07-29T05:36:57;95074.78;;;30.21;53.64
61674;BME280;47573;43.832;5.974;2023-07-29T05:43:37;95076.16;;;30.42;52.55
61674;BME280;47573;43.832;5.974;2023-07-29T05:50:19;95077.13;;;30.32;53.40
61674;BME280;47573;43.832;5.974;2023-07-29T05:57:00;95083.91;;;30.40;52.77
61674;BME280;47573;43.832;5.974;2023-07-29T06:03:40;95078.91;;;30.42;52.81
61674;BME280;47573;43.832;5.974;2023-07-29T06:10:22;95078.28;;;30.50;52.16
61674;BME280;47573;43.832;5.974;2023-07-29T06:17:03;95078.78;;;30.33;53.32
61674;BME280;47573;43.832;5.974;2023-07-29T06:23:44;95091.66;;;30.38;53.43
61674;BME280;47573;43.832;5.974;2023-07-29T06:30:26;95081.66;;;30.42;53.17
61674;BME280;47573;43.832;5.974;2023-07-29T06:37:06;95073.97;;;30.44;53.08
61674;BME280;47573;43.832;5.974;2023-07-29T06:43:47;95085.19;;;30.47;53.17
61674;BME280;47573;43.832;5.974;2023-07-29T06:50:29;95079.31;;;30.54;53.28
61674;BME280;47573;43.832;5.974;2023-07-29T06:57:09;95083.56;;;30.65;52.59
61674;BME280;47573;43.832;5.974;2023-07-29T07:03:50;95088.56;;;30.63;52.87
61674;BME280;47573;43.832;5.974;2023-07-29T07:10:32;95084.59;;;30.69;52.32
61674;BME280;47573;43.832;5.974;2023-07-29T07:17:12;95087.25;;;30.79;51.96
61674;BME280;47573;43.832;5.974;2023-07-29T07:23:53;95084.75;;;30.77;52.19
61674;BME280;47573;43.832;5.974;2023-07-29T07:30:35;95087.13;;;30.89;51.25
61674;BME280;47573;43.832;5.974;2023-07-29T07:37:15;95094.19;;;30.95;51.11
61674;BME280;47573;43.832;5.974;2023-07-29T07:43:56;95097.53;;;30.92;51.36
61674;BME280;47573;43.832;5.974;2023-07-29T07:50:38;95094.78;;;30.92;50.90
61674;BME280;47573;43.832;5.974;2023-07-29T07:57:19;95102.47;;;30.95;51.26
61674;BME280;47573;43.832;5.974;2023-07-29T08:04:00;95107.09;;;31.00;50.96
61674;BME280;47573;43.832;5.974;2023-07-29T08:10:42;95114.38;;;31.09;50.27
61674;BME280;47573;43.832;5.974;2023-07-29T08:17:22;95113.78;;;31.12;50.44
61674;BME280;47573;43.832;5.974;2023-07-29T08:24:03;95111.53;;;31.14;50.81
61674;BME280;47573;43.832;5.974;2023-07-29T08:30:44;95112.47;;;31.23;50.45
61674;BME280;47573;43.832;5.974;2023-07-29T08:37:25;95121.59;;;31.24;50.32
61674;BME280;47573;43.832;5.974;2023-07-29T08:44:10;95118.97;;;31.32;50.40
61674;BME280;47573;43.832;5.974;2023-07-29T08:50:53;95119.56;;;31.29;50.42
61674;BME280;47573;43.832;5.974;2023-07-29T08:57:34;95116.94;;;31.38;49.74
61674;BME280;47573;43.832;5.974;2023-07-29T09:04:15;95120.38;;;31.48;49.11
61674;BME280;47573;43.832;5.974;2023-07-29T09:10:57;95122.75;;;31.55;48.81
61674;BME280;47573;43.832;5.974;2023-07-29T09:17:37;95128.47;;;31.58;49.15
61674;BME280;47573;43.832;5.974;2023-07-29T09:24:21;95127.06;;;31.61;48.79
61674;BME280;47573;43.832;5.974;2023-07-29T09:31:03;95131.69;;;31.65;48.47
61674;BME280;47573;43.832;5.974;2023-07-29T09:37:44;95122.78;;;31.68;48.68
61674;BME280;47573;43.832;5.974;2023-07-29T09:44:24;95125.25;;;31.70;48.59
61674;BME280;47573;43.832;5.974;2023-07-29T09:51:13;95123.84;;;31.73;48.03
61674;BME280;47573;43.832;5.974;2023-07-29T09:57:56;95124.03;;;31.76;47.97
61674;BME280;47573;43.832;5.974;2023-07-29T10:04:37;95125.47;;;31.73;48.45
61674;BME280;47573;43.832;5.974;2023-07-29T10:11:20;95119.41;;;31.39;48.56
61674;BME280;47573;43.832;5.974;2023-07-29T10:18:02;95110.88;;;31.54;46.05
61674;BME280;47573;43.832;5.974;2023-07-29T10:24:43;95113.56;;;31.59;45.54
61674;BME280;47573;43.832;5.974;2023-07-29T10:31:27;95110.28;;;31.57;44.41
61674;BME280;47573;43.832;5.974;2023-07-29T10:38:09;95112.53;;;31.55;44.53
61674;BME280;47573;43.832;5.974;2023-07-29T10:44:51;95100.09;;;31.58;44.02
61674;BME280;47573;43.832;5.974;2023-07-29T10:51:36;95103.13;;;31.56;43.71
61674;BME280;47573;43.832;5.974;2023-07-29T10:58:16;95098.00;;;31.50;43.45
61674;BME280;47573;43.832;5.974;2023-07-29T11:04:58;95096.19;;;31.59;43.08
61674;BME280;47573;43.832;5.974;2023-07-29T11:11:40;95082.88;;;31.47;43.24
61674;BME280;47573;43.832;5.974;2023-07-29T11:18:21;95084.19;;;31.50;42.62
61674;BME280;47573;43.832;5.974;2023-07-29T11:25:01;95075.25;;;31.39;43.17
61674;BME280;47573;43.832;5.974;2023-07-29T11:31:43;95068.09;;;31.38;42.75
61674;BME280;47573;43.832;5.974;2023-07-29T11:38:24;95065.59;;;31.23;42.76
61674;BME280;47573;43.832;5.974;2023-07-29T11:45:05;95068.66;;;31.22;44.18
61674;BME280;47573;43.832;5.974;2023-07-29T11:51:47;95058.84;;;31.29;44.50
61674;BME280;47573;43.832;5.974;2023-07-29T11:58:28;95057.44;;;31.32;45.12
61674;BME280;47573;43.832;5.974;2023-07-29T12:05:09;95045.19;;;31.38;45.08
61674;BME280;47573;43.832;5.974;2023-07-29T12:11:51;95040.97;;;31.45;45.22
61674;BME280;47573;43.832;5.974;2023-07-29T12:18:32;95047.53;;;31.49;45.68
61674;BME280;47573;43.832;5.974;2023-07-29T12:25:13;95045.09;;;31.61;45.55
61674;BME280;47573;43.832;5.974;2023-07-29T12:31:58;95036.69;;;31.66;45.54
61674;BME280;47573;43.832;5.974;2023-07-29T12:38:42;95031.59;;;31.73;45.33
61674;BME280;47573;43.832;5.974;2023-07-29T12:45:23;95022.41;;;31.78;45.85
61674;BME280;47573;43.832;5.974;2023-07-29T12:52:05;95023.09;;;31.84;45.74
61674;BME280;47573;43.832;5.974;2023-07-29T12:58:46;95011.97;;;31.89;45.60
61674;BME280;47573;43.832;5.974;2023-07-29T13:05:26;95016.88;;;31.92;45.89
61674;BME280;47573;43.832;5.974;2023-07-29T13:12:08;95005.44;;;31.98;46.08
61674;BME280;47573;43.832;5.974;2023-07-29T13:18:49;95008.41;;;32.02;46.38
61674;BME280;47573;43.832;5.974;2023-07-29T13:25:30;95011.97;;;31.89;44.77
61674;BME280;47573;43.832;5.974;2023-07-29T13:32:11;95015.06;;;32.01;43.90
61674;BME280;47573;43.832;5.974;2023-07-29T13:38:52;95006.06;;;32.09;43.03
61674;BME280;47573;43.832;5.974;2023-07-29T13:45:33;95005.81;;;31.92;43.51
61674;BME280;47573;43.832;5.974;2023-07-29T13:52:15;95003.00;;;31.97;45.25
61674;BME280;47573;43.832;5.974;2023-07-29T13:58:55;95007.28;;;32.03;45.85
61674;BME280;47573;43.832;5.974;2023-07-29T14:05:36;95010.56;;;32.05;46.16
61674;BME280;47573;43.832;5.974;2023-07-29T14:12:18;94996.66;;;32.10;46.06
61674;BME280;47573;43.832;5.974;2023-07-29T14:18:58;95001.72;;;32.16;46.20
61674;BME280;47573;43.832;5.974;2023-07-29T14:25:39;95003.56;;;32.21;46.59
61674;BME280;47573;43.832;5.974;2023-07-29T14:32:20;95000.06;;;32.29;46.84
61674;BME280;47573;43.832;5.974;2023-07-29T14:39:01;94998.66;;;32.31;46.65
61674;BME280;47573;43.832;5.974;2023-07-29T14:45:41;94994.13;;;32.35;46.84
61674;BME280;47573;43.832;5.974;2023-07-29T14:52:23;95002.00;;;32.42;46.86
61674;BME280;47573;43.832;5.974;2023-07-29T14:59:04;94999.63;;;32.63;47.13
61674;BME280;47573;43.832;5.974;2023-07-29T15:05:44;95011.91;;;32.70;47.33
61674;BME280;47573;43.832;5.974;2023-07-29T15:12:26;95005.72;;;32.73;46.99
61674;BME280;47573;43.832;5.974;2023-07-29T15:19:06;95004.47;;;32.79;46.69
61674;BME280;47573;43.832;5.974;2023-07-29T15:25:47;94997.69;;;32.85;46.48
61674;BME280;47573;43.832;5.974;2023-07-29T15:32:29;94996.25;;;32.88;45.81
61674;BME280;47573;43.832;5.974;2023-07-29T15:39:09;94997.44;;;32.95;45.77
61674;BME280;47573;43.832;5.974;2023-07-29T15:45:50;94992.94;;;32.99;45.78
61674;BME280;47573;43.832;5.974;2023-07-29T15:52:32;94986.31;;;33.00;45.83
61674;BME280;47573;43.832;5.974;2023-07-29T15:59:12;94990.06;;;33.04;45.35
61674;BME280;47573;43.832;5.974;2023-07-29T16:05:52;94979.69;;;33.10;44.66
61674;BME280;47573;43.832;5.974;2023-07-29T16:12:34;94976.91;;;33.10;44.68
61674;BME280;47573;43.832;5.974;2023-07-29T16:19:22;94970.94;;;33.16;44.05
61674;BME280;47573;43.832;5.974;2023-07-29T16:26:03;94956.59;;;33.14;44.07
61674;BME280;47573;43.832;5.974;2023-07-29T16:32:45;94958.81;;;33.04;43.95
61674;BME280;47573;43.832;5.974;2023-07-29T16:39:25;94962.56;;;33.08;44.27
61674;BME280;47573;43.832;5.974;2023-07-29T16:46:06;94978.56;;;33.11;43.60
61674;BME280;47573;43.832;5.974;2023-07-29T16:52:48;94954.47;;;33.11;42.60
61674;BME280;47573;43.832;5.974;2023-07-29T16:59:28;94966.34;;;33.12;42.46
61674;BME280;47573;43.832;5.974;2023-07-29T17:06:09;94966.56;;;33.15;42.37
61674;BME280;47573;43.832;5.974;2023-07-29T17:12:51;94984.28;;;33.14;41.42
61674;BME280;47573;43.832;5.974;2023-07-29T17:19:31;94981.66;;;33.09;41.95
61674;BME280;47573;43.832;5.974;2023-07-29T17:26:12;94981.00;;;33.12;42.65
61674;BME280;47573;43.832;5.974;2023-07-29T17:32:54;94988.31;;;33.08;43.24
61674;BME280;47573;43.832;5.974;2023-07-29T17:39:34;94984.91;;;33.11;43.57
61674;BME280;47573;43.832;5.974;2023-07-29T17:46:15;94995.47;;;33.09;43.24
61674;BME280;47573;43.832;5.974;2023-07-29T17:52:58;94996.41;;;33.05;42.60
61674;BME280;47573;43.832;5.974;2023-07-29T17:59:38;94999.50;;;33.03;42.49
61674;BME280;47573;43.832;5.974;2023-07-29T18:06:18;94994.59;;;33.00;42.19
61674;BME280;47573;43.832;5.974;2023-07-29T18:13:00;95000.63;;;33.02;42.33
61674;BME280;47573;43.832;5.974;2023-07-29T18:19:41;95012.41;;;32.94;42.38
61674;BME280;47573;43.832;5.974;2023-07-29T18:26:21;95013.50;;;32.85;42.41
61674;BME280;47573;43.832;5.974;2023-07-29T18:33:03;95019.25;;;32.75;42.66
61674;BME280;47573;43.832;5.974;2023-07-29T18:39:43;95027.97;;;32.68;42.53
61674;BME280;47573;43.832;5.974;2023-07-29T18:46:24;95032.81;;;32.63;42.29
61674;BME280;47573;43.832;5.974;2023-07-29T18:53:06;95043.59;;;32.51;43.47
61674;BME280;47573;43.832;5.974;2023-07-29T18:59:46;95066.00;;;32.49;43.66
61674;BME280;47573;43.832;5.974;2023-07-29T19:06:27;95084.50;;;32.35;44.63
61674;BME280;47573;43.832;5.974;2023-07-29T19:13:09;95095.03;;;32.33;44.94
61674;BME280;47573;43.832;5.974;2023-07-29T19:19:49;95096.28;;;32.13;46.33
61674;BME280;47573;43.832;5.974;2023-07-29T19:26:30;95103.25;;;32.11;46.45
61674;BME280;47573;43.832;5.974;2023-07-29T19:33:12;95097.09;;;32.00;47.43
61674;BME280;47573;43.832;5.974;2023-07-29T19:39:52;95101.44;;;31.88;47.79
61674;BME280;47573;43.832;5.974;2023-07-29T19:46:33;95123.94;;;31.81;47.69
61674;BME280;47573;43.832;5.974;2023-07-29T19:53:15;95123.22;;;31.76;47.89
61674;BME280;47573;43.832;5.974;2023-07-29T19:59:55;95126.06;;;31.70;48.05
61674;BME280;47573;43.832;5.974;2023-07-29T20:06:36;95139.44;;;31.63;48.61
61674;BME280;47573;43.832;5.974;2023-07-29T20:13:18;95146.75;;;31.54;49.58
61674;BME280;47573;43.832;5.974;2023-07-29T20:19:58;95148.19;;;31.52;50.03
61674;BME280;47573;43.832;5.974;2023-07-29T20:26:39;95137.03;;;31.43;50.40
61674;BME280;47573;43.832;5.974;2023-07-29T20:33:20;95164.63;;;31.43;50.35
61674;BME280;47573;43.832;5.974;2023-07-29T20:40:01;95180.19;;;31.34;51.15
61674;BME280;47573;43.832;5.974;2023-07-29T20:46:42;95195.19;;;31.28;52.17
61674;BME280;47573;43.832;5.974;2023-07-29T20:53:24;95211.72;;;31.10;53.60
61674;BME280;47573;43.832;5.974;2023-07-29T21:00:06;95215.06;;;31.07;53.87
61674;BME280;47573;43.832;5.974;2023-07-29T21:06:46;95218.28;;;30.95;54.27
61674;BME280;47573;43.832;5.974;2023-07-29T21:13:28;95198.44;;;30.93;54.49
61674;BME280;47573;43.832;5.974;2023-07-29T21:20:09;95192.69;;;30.89;55.06
61674;BME280;47573;43.832;5.974;2023-07-29T21:26:50;95181.66;;;30.89;54.71
61674;BME280;47573;43.832;5.974;2023-07-29T21:33:32;95187.41;;;30.93;54.91
61674;BME280;47573;43.832;5.974;2023-07-29T21:40:12;95173.41;;;31.08;54.49
61674;BME280;47573;43.832;5.974;2023-07-29T21:46:53;95201.22;;;31.12;54.35
61674;BME280;47573;43.832;5.974;2023-07-29T21:53:35;95206.38;;;31.18;54.20
61674;BME280;47573;43.832;5.974;2023-07-29T22:00:15;95203.38;;;31.33;53.09
61674;BME280;47573;43.832;5.974;2023-07-29T22:06:56;95176.47;;;31.44;53.01
61674;BME280;47573;43.832;5.974;2023-07-29T22:13:38;95171.97;;;31.48;52.72
61674;BME280;47573;43.832;5.974;2023-07-29T22:20:18;95179.19;;;31.62;52.29
61674;BME280;47573;43.832;5.974;2023-07-29T22:26:59;95192.47;;;31.60;52.26
61674;BME280;47573;43.832;5.974;2023-07-29T22:33:41;95198.44;;;31.67;52.18
61674;BME280;47573;43.832;5.974;2023-07-29T22:40:21;95195.63;;;31.73;52.32
61674;BME280;47573;43.832;5.974;2023-07-29T22:47:02;95195.00;;;31.76;52.42
61674;BME280;47573;43.832;5.974;2023-07-29T22:53:43;95190.50;;;31.80;52.20
61674;BME280;47573;43.832;5.974;2023-07-29T23:00:24;95193.78;;;31.82;52.12
61674;BME280;47573;43.832;5.974;2023-07-29T23:07:05;95196.47;;;31.87;51.56
61674;BME280;47573;43.832;5.974;2023-07-29T23:13:47;95193.09;;;31.90;51.75
61674;BME280;47573;43.832;5.974;2023-07-29T23:20:27;95184.53;;;31.91;51.36
61674;BME280;47573;43.832;5.974;2023-07-29T23:27:08;95204.66;;;31.92;51.49
61674;BME280;47573;43.832;5.974;2023-07-29T23:33:50;95198.56;;;31.95;51.38
61674;BME280;47573;43.832;5.974;2023-07-29T23:40:30;95201.34;;;31.95;51.68
61674;BME280;47573;43.832;5.974;2023-07-29T23:47:11;95205.72;;;31.96;51.12
61674;BME280;47573;43.832;5.974;2023-07-29T23:53:53;95221.06;;;32.02;51.35
